| time (UTC) | temp C | wind direction | speed KPH | gust KPH | rain 1hr cm | rain 24hr cm | rain mn cm | humidity % | barometer mb |
| 20260507200804 | 14 | 81 | 0.0 | 1.6 | 0.00 | 0.91 | 0.25 | 68 | 1018.3 |
| 20260507200304 | 15 | 82 | 0.0 | 4.8 | 0.00 | 0.91 | 0.25 | 68 | 1018.3 |
| 20260507190804 | 15 | 325 | 1.6 | 1.6 | 0.00 | 0.91 | 0.25 | 63 | 1018.2 |
| 20260507180803 | 17 | 354 | 1.6 | 1.6 | 0.00 | 1.40 | 0.25 | 56 | 1018.2 |
| 20260507180304 | 17 | 312 | 1.6 | 12.9 | 0.00 | 1.40 | 0.25 | 54 | 1018.2 |
| 20260507170805 | 20 | 237 | 3.2 | 9.7 | 0.00 | 2.29 | 0.25 | 43 | 1018.2 |
| 20260507170305 | 20 | 240 | 4.8 | 16.1 | 0.00 | 2.39 | 0.25 | 44 | 1018.2 |
| 20260507160802 | 20 | 246 | 4.8 | 11.3 | 0.00 | 3.43 | 0.25 | 44 | 1018.1 |
| 20260507150802 | 21 | 252 | 9.7 | 22.5 | 0.00 | 3.56 | 0.25 | 43 | 1018.1 |
| 20260507150303 | 21 | 256 | 14.5 | 24.1 | 0.00 | 3.56 | 0.25 | 40 | 1018.1 |
| 20260507140302 | 22 | 267 | 17.7 | 22.5 | 0.00 | 3.56 | 0.25 | 38 | 1018.1 |
| 20260507130802 | 22 | 217 | 9.7 | 12.9 | 0.00 | 3.56 | 0.25 | 40 | 1018.0 |
| 20260507120803 | 21 | 270 | 12.9 | 16.1 | 0.00 | 3.56 | 0.25 | 43 | 1018.0 |
| 20260507120302 | 21 | 247 | 9.7 | 19.3 | 0.00 | 3.56 | 0.25 | 42 | 1018.0 |
| 20260507110803 | 20 | 185 | 3.2 | 4.8 | 0.00 | 3.56 | 0.25 | 48 | 1017.9 |
| 20260507110303 | 20 | 245 | 4.8 | 11.3 | 0.00 | 3.56 | 0.25 | 49 | 1017.9 |
| 20260507100802 | 17 | 234 | 3.2 | 4.8 | 0.00 | 3.63 | 0.25 | 56 | 1017.9 |
| 20260507100303 | 17 | 245 | 4.8 | 11.3 | 0.00 | 3.66 | 0.25 | 59 | 1017.9 |
| 20260507090803 | 16 | 166 | 1.6 | 4.8 | 0.00 | 3.71 | 0.25 | 65 | 1017.8 |
| 20260507090303 | 16 | 226 | 1.6 | 8.0 | 0.00 | 3.71 | 0.25 | 65 | 1017.8 |
| 20260507080803 | 14 | 206 | 1.6 | 3.2 | 0.00 | 3.71 | 0.25 | 70 | 1017.8 |
| 20260507080304 | 13 | 162 | 1.6 | 4.8 | 0.00 | 3.71 | 0.25 | 72 | 1017.8 |
| 20260507070803 | 12 | 192 | 1.6 | 4.8 | 0.00 | 3.71 | 0.25 | 80 | 1017.9 |
| 20260507070303 | 12 | 233 | 1.6 | 11.3 | 0.00 | 3.71 | 0.25 | 79 | 1017.8 |
| 20260507060804 | 11 | 99 | 8.0 | 12.9 | 0.00 | 3.76 | 0.25 | 84 | 1017.8 |
| 20260507060303 | 11 | 84 | 8.0 | 14.5 | 0.00 | 3.76 | 0.25 | 84 | 1017.8 |
| 20260507050803 | 9 | 64 | 3.2 | 4.8 | 0.00 | 3.84 | 0.25 | 93 | 1017.8 |
| 20260507050303 | 9 | 62 | 4.8 | 8.0 | 0.03 | 3.84 | 0.25 | 94 | 1017.8 |
| 20260507040803 | 9 | 69 | 1.6 | 8.0 | 0.13 | 3.86 | 0.25 | 94 | 1017.8 |
| 20260507030304 | 9 | 134 | 0.0 | 4.8 | 0.08 | 3.71 | 0.13 | 95 | 1017.8 |
| 20260507020803 | 9 | 260 | 0.0 | 3.2 | 0.00 | 3.63 | 0.05 | 94 | 1017.8 |
| 20260507020303 | 10 | 260 | 1.6 | 4.8 | 0.00 | 3.66 | 0.05 | 94 | 1017.8 |
| 20260507010803 | 10 | 219 | 1.6 | 1.6 | 0.00 | 3.68 | 0.05 | 94 | 1017.8 |
| 20260507010303 | 10 | 257 | 0.0 | 11.3 | 0.00 | 3.68 | 0.05 | 94 | 1017.8 |
| 20260507000803 | 10 | 257 | 1.6 | 3.2 | 0.00 | 3.71 | 0.05 | 93 | 1017.8 |
| 20260507000303 | 10 | 269 | 0.0 | 4.8 | 0.00 | 3.71 | 0.05 | 93 | 1017.8 |
| 20260506230804 | 9 | 54 | 0.0 | 3.2 | 0.05 | 3.71 | 0.05 | 93 | 1017.9 |
| 20260506220804 | 9 | 66 | 3.2 | 4.8 | 0.05 | 3.68 | 0.00 | 93 | 1017.9 |
| 20260506210804 | 8 | 163 | 0.0 | 0.0 | 0.61 | 3.68 | 3.66 | 92 | 1017.9 |
| 20260506210304 | 10 | 252 | 0.0 | 12.9 | 0.18 | 3.23 | 3.20 | 92 | 1017.9 |